Latest Weather Observations for Oodnadatta

IDS60801

Issued at 8:31 am CDT Thursday 23 March 2017 (issued every 30 minutes, with the page automatically refreshed every 10 minutes)

About weather observations | Map of weather stations | Latest weather observations for SA | Other Formats
Station Details ID: 017043 Name: OODNADATTA AIRPORT Lat: -27.56 Lon: 135.45 Height: 116.5 m
Data from the previous 72 hours. | See also: Recent months at Oodnadatta
Date/Time
CDT
Temp
°C
App
Temp
°C
Dew
Point
°C
Rel
Hum
%
Delta-T
°C
Wind Press
QNH
hPa
Press
MSL
hPa
Rain since
9am
mm
Dir  Spd
km/h
Gust
km/h
Spd
kts
Gust
kts
23/08:30am 21.2 19.1 6.7 39 7.4 SSE 7 7 4 4 1014.0 1013.4 -
23/08:00am 19.7 17.0 5.4 39 7.1 SSE 9 11 5 6 1013.7 1013.0 0.0
23/07:30am 19.5 16.0 5.6 40 6.9 S 13 15 7 8 1013.7 1013.0 0.0
23/07:00am 19.7 17.3 5.4 39 7.1 SW 7 9 4 5 1013.5 1012.8 0.0
23/06:30am 20.2 18.0 5.4 38 7.3 WSW 6 7 3 4 1013.1 1012.4 0.0
23/06:00am 20.1 18.0 5.7 39 7.2 WSW 6 7 3 4 1012.7 1012.0 0.0
23/05:30am 20.7 19.6 5.1 36 7.7 CALM 0 0 0 0 1012.3 1011.6 0.0
23/05:00am 20.9 19.8 4.9 35 7.9 CALM 0 0 0 0 1012.3 1011.6 0.0
23/04:30am 21.8 20.8 5.7 35 8.1 CALM 0 0 0 0 1012.3 1011.6 0.0
23/04:00am 22.0 19.3 5.4 34 8.3 SSE 9 9 5 5 1012.1 1011.4 0.0
23/03:30am 22.6 20.3 5.5 33 8.6 SSE 7 9 4 5 1012.2 1011.5 0.0
23/03:00am 22.9 19.7 5.3 32 8.9 SSE 11 13 6 7 1012.2 1011.5 0.0
23/02:30am 23.5 20.8 5.4 31 9.2 SSE 9 11 5 6 1012.3 1011.6 0.0
23/02:00am 24.2 21.1 5.5 30 9.5 SSE 11 11 6 6 1012.7 1012.0 0.0
23/01:30am 24.4 21.4 6.2 31 9.4 SE 11 13 6 7 1012.8 1012.1 0.0
23/01:00am 25.1 22.3 6.8 31 9.6 SE 11 13 6 7 1013.0 1012.3 0.0
23/12:30am 25.6 22.9 7.2 31 9.7 SSE 11 11 6 6 1013.1 1012.4 0.0
23/12:00am 26.8 23.9 8.3 31 10.1 SSE 13 15 7 8 1013.3 1012.6 0.0
 
Date/Time
CDT
Temp
°C
App
Temp
°C
Dew
Point
°C
Rel
Hum
%
Delta-T
°C
Wind Press
QNH
hPa
Press
MSL
hPa
Rain since
9am
mm
Dir  Spd
km/h
Gust
km/h
Spd
kts
Gust
kts
22/11:30pm 27.9 24.9 9.2 31 10.4 SSE 15 19 8 10 1013.4 1012.7 0.0
22/11:00pm 28.3 26.0 10.5 33 10.1 SSE 13 15 7 8 1013.5 1012.8 0.0
22/10:30pm 29.5 26.5 10.6 31 10.8 SSE 17 20 9 11 1013.4 1012.7 0.0
22/10:00pm 30.4 27.3 10.4 29 11.5 SSE 17 22 9 12 1013.0 1012.3 0.0
22/09:30pm 31.0 27.9 10.4 28 11.8 S 17 19 9 10 1012.7 1012.0 0.0
22/09:00pm 31.6 28.5 10.3 27 12.3 S 17 20 9 11 1012.4 1011.7 0.0
22/08:30pm 31.9 29.6 10.6 27 12.3 S 13 17 7 9 1012.0 1011.3 0.0
22/08:00pm 33.1 29.8 11.0 26 12.9 S 19 24 10 13 1011.6 1010.9 0.0
22/07:30pm 33.6 30.1 10.9 25 13.3 S 20 26 11 14 1011.3 1010.6 0.0
22/07:00pm 34.3 30.8 10.8 24 13.8 SSW 20 26 11 14 1010.9 1010.2 0.0
22/06:30pm 34.8 31.2 10.6 23 14.2 S 20 28 11 15 1010.7 1010.0 0.0
22/06:00pm 35.2 31.9 10.9 23 14.3 SSW 19 28 10 15 1010.7 1010.0 0.0
22/05:30pm 35.4 32.0 10.4 22 14.6 SSW 19 28 10 15 1010.7 1010.0 0.0
22/05:00pm 34.9 31.9 10.7 23 14.2 SSW 17 28 9 15 1010.8 1010.1 0.0
22/04:30pm 35.0 32.0 10.8 23 14.2 SSW 17 24 9 13 1010.9 1010.2 0.0
22/04:00pm 34.9 32.8 11.3 24 14.0 S 13 30 7 16 1011.2 1010.5 0.0
22/03:30pm 34.3 31.3 10.8 24 13.8 SSW 17 28 9 15 1011.6 1010.9 0.0
22/03:00pm 33.3 30.3 10.6 25 13.2 S 17 24 9 13 1012.0 1011.3 0.0
22/02:30pm 33.3 30.7 10.6 25 13.2 SSE 15 26 8 14 1012.4 1011.7 0.0
22/02:00pm 32.6 30.3 10.6 26 12.8 SE 13 26 7 14 1012.8 1012.1 0.0
22/01:30pm 31.3 28.7 10.6 28 11.9 SSE 15 22 8 12 1013.4 1012.7 0.0
22/01:00pm 30.3 27.6 10.3 29 11.4 SSE 15 22 8 12 1013.7 1013.0 0.0
22/12:30pm 30.3 27.2 10.3 29 11.4 SSE 17 24 9 13 1014.2 1013.6 0.0
22/12:00pm 29.2 26.0 9.9 30 10.9 SE 17 26 9 14 1014.6 1014.0 0.0
22/11:30am 27.5 24.5 10.7 35 9.5 SSE 17 24 9 13 1014.9 1014.3 0.0
22/11:00am 27.2 24.4 11.3 37 9.1 SSE 17 26 9 14 1015.1 1014.5 0.0
22/10:30am 25.8 22.6 11.2 40 8.3 SSE 19 24 10 13 1015.1 1014.5 0.0
22/10:00am 24.3 20.8 10.9 43 7.5 S 20 28 11 15 1015.1 1014.5 0.0
22/09:30am 23.6 20.0 10.6 44 7.2 S 20 26 11 14 1014.9 1014.3 0.0
22/09:00am 22.3 17.7 9.8 45 6.8 S 24 30 13 16 1014.5 1013.9 0.0
22/08:30am 21.2 17.5 8.1 43 6.9 S 17 22 9 12 1014.1 1013.5 0.0
22/08:00am 19.8 16.2 6.9 43 6.6 S 15 17 8 9 1013.9 1013.2 0.0
22/07:30am 19.8 16.1 6.5 42 6.7 S 15 17 8 9 1013.6 1012.9 0.0
22/07:00am 20.2 17.0 6.9 42 6.8 SSW 13 17 7 9 1013.3 1012.6 0.0
22/06:30am 20.7 17.9 7.0 41 7.0 S 11 15 6 8 1012.9 1012.2 0.0
22/06:00am 21.5 18.3 7.0 39 7.5 S 13 17 7 9 1012.7 1012.0 0.0
22/05:30am 22.5 18.6 7.1 37 8.0 S 17 19 9 10 1012.6 1011.9 0.0
22/05:00am 22.8 19.3 7.4 37 8.0 SSE 15 17 8 9 1012.6 1011.9 0.0
22/04:30am 23.3 19.8 7.4 36 8.3 SSE 15 19 8 10 1012.5 1011.8 0.0
22/04:00am 23.8 20.1 7.8 36 8.5 S 17 20 9 11 1012.6 1011.9 0.0
22/03:30am 23.9 20.7 8.3 37 8.3 S 15 19 8 10 1012.5 1011.8 0.0
22/03:00am 23.3 20.5 8.6 39 7.9 S 13 13 7 7 1012.3 1011.6 0.0
22/02:30am 23.7 20.9 8.6 38 8.1 S 13 13 7 7 1012.3 1011.6 0.0
22/02:00am 24.5 21.8 8.9 37 8.5 SSE 13 15 7 8 1012.2 1011.5 0.0
22/01:30am 24.8 22.1 9.1 37 8.6 SE 13 15 7 8 1012.3 1011.6 0.0
22/01:00am 25.5 23.2 8.9 35 9.0 SSE 11 15 6 8 1012.5 1011.8 0.0
22/12:30am 26.4 23.7 8.8 33 9.6 S 13 17 7 9 1012.5 1011.8 0.0
22/12:00am 27.1 24.2 9.5 33 9.8 SSE 15 17 8 9 1012.7 1012.0 0.0
 
Date/Time
CDT
Temp
°C
App
Temp
°C
Dew
Point
°C
Rel
Hum
%
Delta-T
°C
Wind Press
QNH
hPa
Press
MSL
hPa
Rain since
9am
mm
Dir  Spd
km/h
Gust
km/h
Spd
kts
Gust
kts
21/11:30pm 27.7 24.4 9.5 32 10.1 S 17 20 9 11 1012.8 1012.1 0.0
21/11:00pm 28.2 24.6 9.9 32 10.3 S 19 24 10 13 1012.8 1012.1 0.0
21/10:30pm 28.1 25.4 10.3 33 10.1 S 15 17 8 9 1012.7 1012.0 0.0
21/10:00pm 28.9 26.3 10.6 32 10.4 S 15 17 8 9 1012.3 1011.6 0.0
21/09:30pm 29.6 27.0 10.7 31 10.8 SSW 15 17 8 9 1012.0 1011.3 0.0
21/09:00pm 30.2 27.6 10.7 30 11.2 S 15 17 8 9 1011.7 1011.0 0.0
21/08:30pm 30.8 28.2 10.7 29 11.6 S 15 17 8 9 1011.1 1010.4 0.0
21/08:00pm 31.5 28.9 10.8 28 12.0 S 15 17 8 9 1010.7 1010.0 0.0
21/07:30pm 32.5 29.5 10.5 26 12.8 S 17 22 9 12 1010.2 1009.6 0.0
21/07:00pm 33.1 30.4 10.4 25 13.2 S 15 19 8 10 1010.0 1009.4 0.0
21/06:30pm 33.5 30.9 10.8 25 13.3 SSW 15 26 8 14 1009.9 1009.3 0.0
21/06:00pm 34.0 30.6 10.6 24 13.7 SSW 19 24 10 13 1009.9 1009.3 0.0
21/05:30pm 33.6 30.3 10.9 25 13.3 S 19 28 10 15 1009.8 1009.2 0.0
21/05:00pm 33.7 31.2 10.9 25 13.4 S 15 24 8 13 1009.9 1009.3 0.0
21/04:30pm 33.1 30.2 11.0 26 12.9 SSW 17 26 9 14 1010.0 1009.4 0.0
21/04:00pm 32.6 29.2 11.2 27 12.5 S 20 30 11 16 1010.3 1009.7 0.0
21/03:30pm 32.4 29.3 11.6 28 12.3 S 19 30 10 16 1010.7 1010.0 0.0
21/03:00pm 32.7 29.5 11.8 28 12.4 S 20 30 11 16 1011.2 1010.5 0.0
21/02:30pm 31.9 28.8 12.2 30 11.7 SSW 20 32 11 17 1011.5 1010.8 0.0
21/02:00pm 31.4 27.5 12.2 30 11.4 SSW 24 33 13 18 1012.0 1011.3 0.0
21/01:30pm 30.3 26.8 12.2 33 10.7 SSW 22 35 12 19 1012.3 1011.6 0.0
21/01:00pm 28.7 25.2 12.2 36 9.7 SSW 22 33 12 18 1012.9 1012.2 0.0
21/12:30pm 27.9 24.1 12.3 38 9.1 S 24 32 13 17 1013.3 1012.6 0.0
21/12:00pm 26.7 22.8 12.0 40 8.5 S 24 35 13 19 1013.3 1012.6 0.0
21/11:30am 25.1 20.9 12.3 45 7.4 S 26 35 14 19 1013.5 1012.8 0.0
21/11:00am 24.9 20.2 13.1 48 6.9 S 30 39 16 21 1013.8 1013.1 0.0
21/10:30am 23.7 18.5 13.3 52 6.1 S 33 43 18 23 1013.8 1013.1 0.0
21/10:00am 22.8 17.3 13.6 56 5.4 S 35 44 19 24 1013.7 1013.0 0.0
21/09:30am 21.8 16.6 13.4 59 4.9 S 33 43 18 23 1013.5 1012.8 0.0
21/09:00am 21.3 15.8 13.5 61 4.5 S 35 43 19 23 1013.3 1012.6 0.0
21/08:30am 21.1 16.4 13.3 61 4.5 S 30 37 16 20 1012.8 1012.1 0.0
21/08:00am 21.0 16.7 13.2 61 4.5 S 28 35 15 19 1012.3 1011.6 0.0
21/07:30am 21.2 17.6 13.1 60 4.7 S 24 32 13 17 1012.1 1011.4 0.0
21/07:00am 21.7 17.7 13.1 58 4.9 S 26 35 14 19 1011.6 1010.9 0.0
21/06:30am 22.0 18.0 13.1 57 5.1 S 26 33 14 18 1011.1 1010.4 0.0
21/06:00am 22.6 18.6 13.1 55 5.5 S 26 35 14 19 1011.0 1010.3 0.0
21/05:30am 23.0 18.4 13.5 55 5.5 S 30 39 16 21 1010.6 1009.9 0.0
21/05:00am 23.5 19.4 13.7 54 5.7 S 28 35 15 19 1010.0 1009.4 0.0
21/04:30am 23.9 20.4 13.4 51 6.1 S 24 33 13 18 1009.7 1009.1 0.0
21/04:00am 24.5 19.3 13.4 50 6.5 S 33 44 18 24 1009.6 1009.0 0.0
21/03:30am 25.4 20.2 13.3 47 7.1 S 33 43 18 23 1009.6 1009.0 0.0
21/03:00am 26.4 20.5 10.5 37 9.0 S 32 41 17 22 1009.4 1008.8 0.0
21/02:30am 27.7 22.1 7.0 27 11.1 SSW 26 37 14 20 1009.2 1008.6 0.0
21/02:00am 28.6 22.8 4.2 21 12.5 SSW 24 32 13 17 1008.9 1008.3 0.0
21/01:30am 27.5 24.7 5.1 24 11.6 SSE 9 11 5 6 1008.6 1008.0 0.0
21/01:00am 28.1 24.6 5.6 24 11.8 SSE 13 15 7 8 1008.7 1008.1 0.0
21/12:30am 28.8 25.0 5.6 23 12.2 S 15 19 8 10 1008.6 1008.0 0.0
21/12:00am 28.6 26.5 6.7 25 11.7 SE 7 7 4 4 1008.6 1008.0 0.0
 
Date/Time
CDT
Temp
°C
App
Temp
°C
Dew
Point
°C
Rel
Hum
%
Delta-T
°C
Wind Press
QNH
hPa
Press
MSL
hPa
Rain since
9am
mm
Dir  Spd
km/h
Gust
km/h
Spd
kts
Gust
kts
20/11:30pm 29.1 26.2 6.5 24 12.1 SE 11 13 6 7 1008.6 1008.0 0.0
20/11:00pm 29.8 26.5 6.5 23 12.5 SSE 13 15 7 8 1008.8 1008.2 0.0
20/10:30pm 30.6 27.3 6.5 22 13.0 SSE 13 15 7 8 1008.8 1008.2 0.0
20/10:00pm 32.1 29.3 7.0 21 13.7 SSE 11 11 6 6 1008.7 1008.1 0.0
20/09:30pm 32.9 30.9 7.0 20 14.2 SSE 7 9 4 5 1008.4 1007.8 0.0
20/09:00pm 33.3 30.6 7.3 20 14.4 SSE 11 13 6 7 1008.2 1007.6 0.0
20/08:30pm 34.6 31.6 7.6 19 15.1 SSW 13 19 7 10 1007.9 1007.3 0.0
20/08:00pm 35.8 32.6 8.6 19 15.5 S 15 17 8 9 1007.5 1006.9 0.0
20/07:30pm 36.7 33.5 8.5 18 16.2 SSE 15 20 8 11 1007.2 1006.6 0.0
20/07:00pm 37.3 34.8 8.2 17 16.6 SSW 11 17 6 9 1007.0 1006.4 0.0
20/06:30pm 37.9 33.4 8.6 17 16.9 SSE 22 28 12 15 1006.7 1006.1 0.0
20/06:00pm 37.5 34.3 8.3 17 16.8 SSE 15 28 8 15 1006.5 1005.9 0.0
20/05:30pm 37.9 35.5 8.6 17 16.9 SW 11 19 6 10 1006.5 1005.9 0.0
20/05:00pm 37.6 34.2 7.5 16 17.0 S 15 28 8 15 1006.6 1006.0 0.0
20/04:30pm 38.2 36.3 8.9 17 17.0 SW 9 19 5 10 1006.9 1006.3 0.0
20/04:00pm 37.4 34.5 8.2 17 16.7 SSE 13 20 7 11 1007.0 1006.4 0.0
20/03:30pm 37.1 35.7 8.8 18 16.3 ENE 6 15 3 8 1007.4 1006.8 0.0
20/03:00pm 36.5 34.4 9.9 20 15.6 E 11 17 6 9 1007.8 1007.2 0.0
20/02:30pm 36.8 35.0 10.9 21 15.4 ESE 11 22 6 12 1008.1 1007.5 0.0
20/02:00pm 35.6 34.3 9.9 21 14.9 WNW 7 13 4 7 1008.6 1008.0 0.0
20/01:30pm 36.2 34.3 10.4 21 15.2 NE 11 20 6 11 1009.0 1008.4 0.0
20/01:00pm 35.1 32.9 10.9 23 14.3 N 13 22 7 12 1009.4 1008.8 0.0
20/12:30pm 34.5 32.4 11.0 24 13.8 N 13 20 7 11 1009.7 1009.1 0.0
20/12:00pm 34.6 32.7 11.7 25 13.6 NNW 13 20 7 11 1009.9 1009.3 0.0
20/11:30am 33.7 31.7 12.7 28 12.7 N 15 26 8 14 1010.2 1009.6 0.0
20/11:00am 33.2 30.8 12.8 29 12.3 N 17 24 9 13 1010.5 1009.8 0.0
20/10:30am 31.8 29.1 11.6 29 11.9 N 17 22 9 12 1010.7 1010.0 0.0
20/10:00am 29.6 27.4 10.7 31 10.8 N 13 19 7 10 1010.7 1010.0 0.0
20/09:30am 27.3 25.2 9.6 33 9.9 NNW 11 13 6 7 1010.9 1010.2 0.0
20/09:00am 24.9 23.1 8.0 34 9.0 WNW 7 11 4 6 1010.8 1010.1 0.0

Other Formats:

Comma delimited format used in spreadsheet applications
http://www.bom.gov.au/fwo/IDS60801/IDS60801.94476.axf

JavaScript Object Notation format (JSON) in row-major order
http://www.bom.gov.au/fwo/IDS60801/IDS60801.94476.json